createdAt,value
2022-07-31T00:02:08.620Z,4.38
2022-07-31T00:04:35.566Z,4.45
2022-07-31T00:07:02.939Z,4.65
2022-07-31T00:09:53.301Z,4.70
2022-07-31T00:12:17.606Z,5.00
2022-07-31T00:14:45.354Z,4.70
2022-07-31T00:17:15.064Z,4.70
2022-07-31T00:19:41.892Z,4.68
2022-07-31T00:22:09.867Z,3.97
2022-07-31T00:24:36.787Z,4.45
2022-07-31T00:27:04.745Z,5.07
2022-07-31T00:29:32.063Z,4.72
2022-07-31T00:31:58.838Z,4.40
2022-07-31T00:34:25.577Z,5.30
2022-07-31T00:36:52.354Z,4.55
2022-07-31T00:39:19.144Z,4.68
2022-07-31T00:41:46.867Z,4.65
2022-07-31T00:44:14.539Z,5.07
2022-07-31T00:46:42.262Z,4.50
2022-07-31T00:49:12.768Z,4.63
2022-07-31T00:51:40.141Z,5.00
2022-07-31T00:54:16.270Z,5.00
2022-07-31T00:56:50.305Z,4.30
2022-07-31T00:59:18.884Z,4.40
2022-07-31T01:01:51.707Z,4.28
2022-07-31T01:04:19.222Z,4.22
2022-07-31T01:06:47.414Z,4.00
2022-07-31T01:09:14.821Z,4.82
2022-07-31T01:11:52.760Z,4.30
2022-07-31T01:14:32.730Z,4.05
2022-07-31T01:17:01.922Z,4.68
2022-07-31T01:19:40.742Z,4.22
2022-07-31T01:22:33.154Z,4.63
2022-07-31T01:25:28.893Z,4.20
2022-07-31T01:28:24.219Z,5.03
2022-07-31T01:31:26.713Z,4.07
2022-07-31T01:34:04.026Z,4.60
2022-07-31T01:36:35.062Z,4.13
2022-07-31T01:39:03.574Z,4.28
2022-07-31T01:41:40.600Z,4.53
2022-07-31T01:44:13.831Z,4.85
2022-07-31T01:46:43.665Z,4.57
2022-07-31T01:49:12.530Z,4.95
2022-07-31T01:51:42.009Z,4.72
2022-07-31T01:54:10.395Z,4.72
2022-07-31T01:56:39.015Z,4.50
2022-07-31T01:59:20.654Z,5.05
2022-07-31T02:01:59.580Z,4.45
2022-07-31T02:04:27.460Z,4.70
2022-07-31T02:06:55.793Z,4.75
2022-07-31T02:09:24.256Z,4.90
2022-07-31T02:11:54.699Z,4.80
2022-07-31T02:14:23.143Z,4.53
2022-07-31T02:16:50.422Z,4.53
2022-07-31T02:19:19.248Z,4.70
2022-07-31T02:21:46.067Z,5.40
2022-07-31T02:24:13.309Z,5.30
2022-07-31T02:26:40.924Z,4.80
2022-07-31T02:29:20.059Z,4.60
2022-07-31T02:32:02.993Z,4.57
2022-07-31T02:34:32.407Z,4.85
2022-07-31T02:37:01.376Z,4.60
2022-07-31T02:39:30.770Z,5.18
2022-07-31T02:42:01.880Z,4.75
2022-07-31T02:47:02.388Z,4.60
2022-07-31T02:49:30.696Z,4.60
2022-07-31T02:51:57.829Z,4.47
2022-07-31T02:54:26.074Z,4.63
2022-07-31T02:56:53.754Z,4.22
2022-07-31T02:59:22.219Z,4.50
2022-07-31T03:01:48.994Z,4.45
2022-07-31T03:04:15.940Z,4.65
2022-07-31T03:06:43.399Z,4.57
2022-07-31T03:09:10.204Z,4.30
2022-07-31T03:11:37.263Z,5.28
2022-07-31T03:14:05.837Z,4.53
2022-07-31T03:16:34.424Z,5.15
2022-07-31T03:19:02.312Z,5.18
2022-07-31T03:21:32.514Z,5.72
2022-07-31T03:24:00.579Z,6.43
2022-07-31T03:26:30.418Z,6.17
2022-07-31T03:29:00.511Z,7.28
2022-07-31T03:31:27.388Z,6.97
2022-07-31T03:33:54.426Z,7.20
2022-07-31T03:36:21.210Z,7.13
2022-07-31T03:38:50.899Z,6.93
2022-07-31T03:41:17.786Z,7.57
2022-07-31T03:43:48.135Z,7.50
2022-07-31T03:46:22.328Z,7.53
2022-07-31T03:48:52.511Z,8.30
2022-07-31T03:51:20.006Z,7.90
2022-07-31T03:53:48.054Z,7.78
2022-07-31T03:56:17.619Z,8.50
2022-07-31T03:58:48.076Z,9.63
2022-07-31T04:01:20.786Z,10.23
2022-07-31T04:03:50.025Z,10.13
2022-07-31T04:06:16.817Z,10.65
2022-07-31T04:08:43.609Z,11.80
2022-07-31T04:11:10.436Z,11.98
2022-07-31T04:13:37.829Z,12.35
2022-07-31T04:16:04.847Z,12.75
2022-07-31T04:18:31.581Z,13.68
2022-07-31T04:20:58.355Z,14.35
2022-07-31T04:23:32.579Z,13.63
2022-07-31T04:25:59.980Z,14.13
2022-07-31T04:28:26.860Z,13.95
2022-07-31T04:30:53.625Z,13.98
2022-07-31T04:33:21.058Z,14.35
2022-07-31T04:35:47.923Z,13.95
2022-07-31T04:38:16.805Z,13.52
2022-07-31T04:40:43.775Z,13.25
2022-07-31T04:43:10.821Z,14.75
2022-07-31T04:45:39.974Z,14.13
2022-07-31T04:48:06.853Z,14.23
2022-07-31T04:50:33.590Z,14.07
2022-07-31T04:53:00.503Z,14.38
2022-07-31T04:55:27.205Z,15.55
2022-07-31T04:57:54.004Z,14.98
2022-07-31T05:00:20.872Z,14.55
2022-07-31T05:02:47.679Z,14.60
2022-07-31T05:05:14.497Z,15.15
2022-07-31T05:07:41.290Z,16.25
2022-07-31T05:10:30.895Z,15.70
2022-07-31T05:12:57.821Z,15.82
2022-07-31T05:15:24.538Z,16.05
2022-07-31T05:17:51.657Z,16.00
2022-07-31T05:20:19.302Z,17.20
2022-07-31T05:22:46.030Z,17.45
2022-07-31T05:25:12.793Z,16.90
2022-07-31T05:27:41.335Z,17.50
2022-07-31T05:30:10.871Z,18.27
2022-07-31T05:32:39.859Z,17.85
2022-07-31T05:35:06.982Z,17.73
2022-07-31T05:37:36.498Z,17.92
2022-07-31T05:40:03.713Z,17.65
2022-07-31T05:42:30.503Z,15.98
2022-07-31T05:44:57.398Z,17.15
2022-07-31T05:47:24.132Z,17.77
2022-07-31T05:50:10.876Z,17.70
2022-07-31T05:52:37.919Z,18.25
2022-07-31T05:55:05.334Z,18.42
2022-07-31T05:57:33.629Z,18.13
2022-07-31T06:00:02.027Z,19.23
2022-07-31T06:02:30.927Z,18.48
2022-07-31T06:04:57.857Z,18.23
2022-07-31T06:07:24.640Z,19.13
2022-07-31T06:09:53.638Z,18.58
2022-07-31T06:12:22.575Z,19.23
2022-07-31T06:14:49.598Z,18.35
2022-07-31T06:17:16.566Z,18.65
2022-07-31T06:19:43.349Z,19.27
2022-07-31T06:22:10.294Z,19.23
2022-07-31T06:24:38.352Z,20.20
2022-07-31T06:27:08.653Z,19.50
2022-07-31T06:29:43.239Z,21.45
2022-07-31T06:32:09.994Z,21.15
2022-07-31T06:34:36.779Z,21.38
2022-07-31T06:37:03.577Z,20.88
2022-07-31T06:39:54.639Z,21.00
2022-07-31T06:42:21.545Z,22.05
2022-07-31T06:44:49.095Z,20.83
2022-07-31T06:47:21.249Z,20.85
2022-07-31T06:49:48.070Z,20.33
2022-07-31T06:52:16.019Z,22.00
2022-07-31T06:54:44.148Z,20.17
2022-07-31T06:57:13.208Z,20.48
2022-07-31T06:59:40.883Z,19.67
2022-07-31T07:02:08.715Z,20.13
2022-07-31T07:04:57.426Z,20.42
2022-07-31T07:07:22.977Z,21.42
2022-07-31T07:09:49.762Z,20.80
2022-07-31T07:12:17.055Z,19.98
2022-07-31T07:14:44.958Z,20.42
2022-07-31T07:17:14.157Z,20.75
2022-07-31T07:19:43.753Z,21.70
2022-07-31T07:22:10.548Z,22.63
2022-07-31T07:24:40.077Z,23.20
2022-07-31T07:27:06.838Z,23.08
2022-07-31T07:29:36.279Z,22.15
2022-07-31T07:32:03.555Z,23.13
2022-07-31T07:34:33.644Z,22.98
2022-07-31T07:37:00.413Z,24.15
2022-07-31T07:39:28.019Z,23.75
2022-07-31T07:41:54.772Z,22.40
2022-07-31T07:44:26.296Z,22.40
2022-07-31T07:46:53.041Z,20.88
2022-07-31T07:49:22.425Z,21.27
2022-07-31T07:52:10.289Z,20.02
2022-07-31T07:54:40.222Z,20.00
2022-07-31T07:57:06.994Z,18.20
2022-07-31T07:59:33.837Z,17.45
2022-07-31T08:02:00.799Z,17.63
2022-07-31T08:04:27.926Z,17.13
2022-07-31T08:06:54.671Z,17.90
2022-07-31T08:09:23.167Z,17.40
2022-07-31T08:11:52.211Z,17.92
2022-07-31T08:14:19.308Z,17.45
2022-07-31T08:16:51.356Z,17.95
2022-07-31T08:19:20.547Z,18.13
2022-07-31T08:21:47.615Z,17.88
2022-07-31T08:24:19.446Z,18.38
2022-07-31T08:27:10.659Z,18.70
2022-07-31T08:29:38.312Z,19.40
2022-07-31T08:32:05.854Z,20.13
2022-07-31T08:34:39.050Z,20.92
2022-07-31T08:37:51.012Z,19.30
2022-07-31T08:39:55.495Z,20.13
2022-07-31T08:42:25.448Z,19.45
2022-07-31T08:44:52.429Z,22.05
2022-07-31T08:47:21.372Z,24.55
2022-07-31T08:49:49.339Z,25.08
2022-07-31T08:52:23.898Z,26.02
2022-07-31T08:54:52.938Z,28.77
2022-07-31T08:57:22.438Z,29.55
2022-07-31T08:59:52.424Z,30.00
2022-07-31T09:02:19.531Z,30.50
2022-07-31T09:04:52.144Z,31.58
2022-07-31T09:07:19.489Z,31.38
2022-07-31T09:09:51.217Z,32.20
2022-07-31T09:12:34.190Z,31.02
2022-07-31T09:15:04.318Z,30.17
2022-07-31T09:17:37.947Z,29.88
2022-07-31T09:20:08.607Z,29.50
2022-07-31T09:22:35.403Z,28.20
2022-07-31T09:25:16.085Z,28.83
2022-07-31T09:27:45.423Z,28.90
2022-07-31T09:30:12.676Z,26.73
2022-07-31T09:32:39.481Z,29.20
2022-07-31T09:35:09.057Z,29.45
2022-07-31T09:37:36.136Z,29.00
2022-07-31T09:40:03.832Z,29.77
2022-07-31T09:42:48.451Z,29.73
2022-07-31T09:45:24.545Z,26.58
2022-07-31T09:48:12.561Z,27.80
2022-07-31T09:50:59.797Z,24.35
2022-07-31T09:53:27.233Z,23.50
2022-07-31T09:55:57.244Z,24.35
2022-07-31T09:58:24.917Z,20.92
2022-07-31T10:00:55.087Z,21.40
2022-07-31T10:03:24.730Z,21.65
2022-07-31T10:05:52.512Z,19.52
2022-07-31T10:08:21.326Z,17.17
2022-07-31T10:10:51.837Z,15.32
2022-07-31T10:13:21.002Z,14.93
2022-07-31T10:15:50.025Z,12.00
2022-07-31T10:18:21.096Z,12.00
2022-07-31T10:21:06.683Z,10.73
2022-07-31T10:23:35.580Z,9.95
2022-07-31T10:26:03.063Z,9.70
2022-07-31T10:28:30.512Z,8.77
2022-07-31T10:30:58.137Z,7.68
2022-07-31T10:33:43.567Z,7.50
2022-07-31T10:36:21.522Z,6.88
2022-07-31T10:39:01.890Z,6.63
2022-07-31T10:41:53.046Z,6.53
2022-07-31T10:44:28.986Z,6.63
2022-07-31T10:46:58.975Z,6.50
2022-07-31T10:49:47.909Z,5.95
2022-07-31T10:52:26.586Z,5.57
2022-07-31T10:54:58.069Z,6.05
2022-07-31T10:59:53.372Z,6.90
2022-07-31T11:02:35.445Z,7.28
2022-07-31T11:05:17.721Z,7.40
2022-07-31T11:07:47.884Z,7.93
2022-07-31T11:10:20.952Z,7.75
2022-07-31T11:13:11.418Z,9.27
2022-07-31T11:15:38.797Z,10.07
2022-07-31T11:18:29.911Z,9.95
2022-07-31T11:21:22.355Z,9.82
2022-07-31T11:24:02.101Z,8.77
2022-07-31T11:26:33.481Z,9.55
2022-07-31T11:30:02.079Z,9.15
2022-07-31T11:32:25.947Z,8.75
2022-07-31T11:34:57.511Z,8.50
2022-07-31T11:39:53.985Z,6.70
2022-07-31T11:42:26.378Z,6.75
2022-07-31T11:45:08.358Z,6.95
2022-07-31T11:48:12.432Z,7.38
2022-07-31T11:50:31.702Z,6.40
2022-07-31T11:53:07.070Z,6.00
2022-07-31T11:55:51.027Z,6.35
2022-07-31T11:58:20.539Z,6.63
2022-07-31T12:00:55.451Z,6.70
2022-07-31T12:03:35.282Z,7.20
2022-07-31T12:06:02.659Z,6.20
2022-07-31T12:08:29.928Z,6.47
2022-07-31T12:10:59.777Z,5.95
2022-07-31T12:13:30.421Z,5.85
2022-07-31T12:16:04.173Z,6.20
2022-07-31T12:18:53.708Z,5.32
2022-07-31T12:21:21.016Z,5.85
2022-07-31T12:23:52.703Z,5.07
2022-07-31T12:26:27.166Z,5.40
2022-07-31T12:29:02.222Z,5.10
2022-07-31T12:31:31.254Z,5.13
2022-07-31T12:33:59.743Z,5.00
2022-07-31T12:36:27.417Z,5.20
2022-07-31T12:39:03.723Z,5.18
2022-07-31T12:41:31.515Z,5.55
2022-07-31T12:44:21.544Z,5.50
2022-07-31T12:46:49.127Z,5.50
2022-07-31T12:49:16.623Z,5.65
2022-07-31T12:51:44.635Z,5.10
2022-07-31T12:54:16.339Z,5.80
2022-07-31T12:56:43.962Z,5.93
2022-07-31T12:59:11.092Z,6.13
2022-07-31T13:01:38.501Z,5.68
2022-07-31T13:04:07.788Z,5.93
2022-07-31T13:06:37.462Z,5.55
2022-07-31T13:09:04.654Z,6.47
2022-07-31T13:11:46.334Z,6.15
2022-07-31T13:14:14.599Z,6.55
2022-07-31T13:16:41.483Z,6.50
2022-07-31T13:19:10.532Z,6.40
2022-07-31T13:21:49.463Z,6.47
2022-07-31T13:24:20.288Z,6.85
2022-07-31T13:26:48.248Z,5.85
2022-07-31T13:29:15.644Z,6.43
2022-07-31T13:31:42.859Z,6.22
2022-07-31T13:34:09.875Z,6.32
2022-07-31T13:36:39.503Z,5.97
2022-07-31T13:39:07.941Z,5.82
2022-07-31T13:41:35.666Z,5.40
2022-07-31T13:44:03.770Z,5.55
2022-07-31T13:46:33.758Z,6.20
2022-07-31T13:49:02.215Z,6.55
2022-07-31T13:51:30.153Z,6.50
2022-07-31T13:53:59.905Z,5.78
2022-07-31T13:56:42.424Z,6.25
2022-07-31T13:59:13.894Z,7.55
2022-07-31T14:02:02.913Z,7.22
2022-07-31T14:04:32.565Z,7.50
2022-07-31T14:07:06.126Z,7.63
2022-07-31T14:09:34.738Z,6.75
2022-07-31T14:12:03.826Z,7.15
2022-07-31T14:14:32.201Z,7.75
2022-07-31T14:16:59.038Z,8.55
2022-07-31T14:19:25.913Z,7.75
2022-07-31T14:21:57.048Z,8.85
2022-07-31T14:24:25.860Z,8.60
2022-07-31T14:26:53.302Z,8.68
2022-07-31T14:29:20.293Z,9.23
2022-07-31T14:31:47.062Z,9.38
2022-07-31T14:34:14.048Z,9.05
2022-07-31T14:36:40.870Z,8.43
2022-07-31T14:39:07.632Z,8.95
2022-07-31T14:41:34.399Z,8.63
2022-07-31T14:44:01.379Z,7.70
2022-07-31T14:46:28.233Z,7.88
2022-07-31T14:48:55.097Z,8.20
2022-07-31T14:51:21.973Z,8.25
2022-07-31T14:53:48.961Z,8.13
2022-07-31T14:56:27.245Z,7.80
2022-07-31T14:59:01.534Z,7.60
2022-07-31T15:01:30.724Z,8.10
2022-07-31T15:03:58.518Z,6.97
2022-07-31T15:06:51.099Z,7.13
2022-07-31T15:09:15.005Z,7.63
2022-07-31T15:11:59.262Z,7.53
2022-07-31T15:14:29.984Z,6.95
2022-07-31T15:16:59.337Z,6.97
2022-07-31T15:19:30.788Z,7.07
2022-07-31T15:22:16.333Z,7.68
2022-07-31T15:24:48.544Z,7.13
2022-07-31T15:27:18.890Z,6.55
2022-07-31T15:30:04.246Z,8.10
2022-07-31T15:32:37.343Z,6.90
2022-07-31T15:37:35.607Z,7.07
2022-07-31T15:40:04.615Z,7.22
2022-07-31T15:42:32.297Z,7.65
2022-07-31T15:45:01.369Z,6.75
2022-07-31T15:47:28.190Z,7.60
2022-07-31T15:49:55.239Z,7.47
2022-07-31T15:52:23.018Z,7.63
2022-07-31T15:54:52.055Z,7.72
2022-07-31T15:57:22.103Z,8.48
2022-07-31T15:59:49.834Z,8.65
2022-07-31T16:02:17.293Z,7.60
2022-07-31T16:04:52.007Z,7.57
2022-07-31T16:08:32.749Z,8.10
2022-07-31T16:10:15.718Z,8.52
2022-07-31T16:12:47.401Z,8.05
2022-07-31T16:15:15.048Z,8.07
2022-07-31T16:17:43.551Z,8.38
2022-07-31T16:20:20.890Z,7.68
2022-07-31T16:23:03.076Z,7.43
2022-07-31T16:25:32.123Z,7.78
2022-07-31T16:28:03.454Z,8.43
2022-07-31T16:30:30.946Z,7.63
2022-07-31T16:33:00.104Z,7.93
2022-07-31T16:35:27.125Z,8.40
2022-07-31T16:37:54.664Z,8.50
2022-07-31T16:40:28.608Z,8.82
2022-07-31T16:43:49.663Z,8.60
2022-07-31T16:45:53.122Z,8.15
2022-07-31T16:48:22.754Z,8.50
2022-07-31T16:50:53.315Z,7.80
2022-07-31T16:54:11.135Z,7.55
2022-07-31T16:56:17.129Z,7.30
2022-07-31T16:58:44.340Z,8.50
2022-07-31T17:01:57.349Z,8.70
2022-07-31T17:04:03.892Z,8.05
2022-07-31T17:06:38.451Z,7.78
2022-07-31T17:09:16.102Z,7.68
2022-07-31T17:11:49.917Z,8.85
2022-07-31T17:14:26.660Z,8.45
2022-07-31T17:16:54.819Z,8.45
2022-07-31T17:19:36.049Z,8.30
2022-07-31T17:22:04.651Z,8.23
2022-07-31T17:24:36.078Z,8.02
2022-07-31T17:27:05.455Z,8.27
2022-07-31T17:29:35.528Z,9.35
2022-07-31T17:32:04.780Z,8.90
2022-07-31T17:34:31.739Z,8.40
2022-07-31T17:37:01.568Z,8.45
2022-07-31T17:39:30.860Z,7.85
2022-07-31T17:41:58.838Z,8.52
2022-07-31T17:44:26.213Z,8.68
2022-07-31T17:46:57.986Z,8.57
2022-07-31T17:49:28.840Z,8.45
2022-07-31T17:51:59.831Z,7.70
2022-07-31T17:54:31.687Z,8.80
2022-07-31T17:59:29.112Z,7.63
2022-07-31T18:02:00.429Z,7.93
2022-07-31T18:04:33.126Z,8.85
2022-07-31T18:07:04.194Z,8.32
2022-07-31T18:09:33.738Z,9.02
2022-07-31T18:12:00.790Z,9.02
2022-07-31T18:14:30.025Z,8.77
2022-07-31T18:16:59.574Z,8.68
2022-07-31T18:19:26.348Z,9.40
2022-07-31T18:21:54.749Z,8.82
2022-07-31T18:24:22.315Z,8.88
2022-07-31T18:26:50.088Z,8.23
2022-07-31T18:29:20.012Z,8.73
2022-07-31T18:31:47.474Z,9.27
2022-07-31T18:34:14.747Z,8.80
2022-07-31T18:36:41.957Z,9.48
2022-07-31T18:39:08.892Z,10.45
2022-07-31T18:41:38.802Z,8.88
2022-07-31T18:44:05.895Z,8.73
2022-07-31T18:46:35.272Z,9.75
2022-07-31T18:49:02.204Z,9.35
2022-07-31T18:51:34.683Z,9.50
2022-07-31T18:54:03.755Z,9.60
2022-07-31T18:56:30.790Z,9.25
2022-07-31T18:59:00.419Z,9.70
2022-07-31T19:01:30.067Z,9.60
2022-07-31T19:03:57.096Z,9.10
2022-07-31T19:06:23.914Z,8.55
2022-07-31T19:08:52.240Z,9.90
2022-07-31T19:11:22.592Z,9.23
2022-07-31T19:13:54.903Z,9.80
2022-07-31T19:16:24.446Z,9.27
2022-07-31T19:18:56.607Z,8.55
2022-07-31T19:21:41.951Z,9.25
2022-07-31T19:24:12.618Z,9.73
2022-07-31T19:26:39.487Z,10.40
2022-07-31T19:29:08.573Z,10.10
2022-07-31T19:31:37.973Z,10.65
2022-07-31T19:34:07.124Z,10.65
2022-07-31T19:36:34.111Z,10.57
2022-07-31T19:39:04.680Z,10.27
2022-07-31T19:41:34.408Z,12.18
2022-07-31T19:44:06.889Z,11.63
2022-07-31T19:46:35.859Z,10.85
2022-07-31T19:49:03.529Z,10.35
2022-07-31T19:51:31.363Z,10.43
2022-07-31T19:53:58.795Z,11.35
2022-07-31T19:56:28.377Z,10.88
2022-07-31T19:58:55.513Z,8.98
2022-07-31T20:01:22.366Z,9.73
2022-07-31T20:03:50.407Z,9.88
2022-07-31T20:06:20.692Z,9.68
2022-07-31T20:08:49.686Z,9.50
2022-07-31T20:11:17.463Z,9.85
2022-07-31T20:13:47.254Z,10.00
2022-07-31T20:16:19.570Z,10.63
2022-07-31T20:18:49.417Z,9.88
2022-07-31T20:21:21.635Z,9.57
2022-07-31T20:23:49.026Z,10.48
2022-07-31T20:26:17.634Z,11.10
2022-07-31T20:28:44.810Z,10.48
2022-07-31T20:31:15.055Z,11.02
2022-07-31T20:33:56.821Z,10.70
2022-07-31T20:36:25.897Z,11.02
2022-07-31T20:38:52.721Z,11.27
2022-07-31T20:41:19.752Z,9.88
2022-07-31T20:43:46.811Z,8.45
2022-07-31T20:46:15.715Z,9.40
2022-07-31T20:48:44.625Z,8.05
2022-07-31T20:51:19.116Z,8.73
2022-07-31T20:53:47.842Z,8.63
2022-07-31T20:56:14.656Z,8.98
2022-07-31T20:58:41.715Z,7.93
2022-07-31T21:01:08.788Z,7.88
2022-07-31T21:03:35.811Z,7.43
2022-07-31T21:06:03.076Z,7.72
2022-07-31T21:08:30.027Z,7.95
2022-07-31T21:10:57.047Z,7.15
2022-07-31T21:13:28.261Z,7.80
2022-07-31T21:15:57.176Z,7.10
2022-07-31T21:18:23.946Z,7.47
2022-07-31T21:20:53.807Z,6.60
2022-07-31T21:23:23.023Z,7.45
2022-07-31T21:25:54.484Z,7.03
2022-07-31T21:30:48.838Z,7.00
2022-07-31T21:33:16.300Z,7.15
2022-07-31T21:35:43.451Z,6.90
2022-07-31T21:38:11.820Z,7.40
2022-07-31T21:40:39.602Z,7.00
2022-07-31T21:43:06.835Z,7.30
2022-07-31T21:45:50.980Z,7.70
2022-07-31T21:48:24.879Z,7.72
2022-07-31T21:50:52.613Z,7.78
2022-07-31T21:53:23.273Z,7.63
2022-07-31T21:55:53.370Z,7.90
2022-07-31T21:58:20.338Z,7.70
2022-07-31T22:00:49.539Z,7.30
2022-07-31T22:03:16.631Z,6.55
2022-07-31T22:06:01.790Z,6.63
2022-07-31T22:08:28.522Z,7.00
2022-07-31T22:10:55.280Z,7.55
2022-07-31T22:13:22.214Z,7.82
2022-07-31T22:15:58.106Z,8.10
2022-07-31T22:18:32.040Z,7.45
2022-07-31T22:21:00.307Z,7.60
2022-07-31T22:23:28.391Z,7.43
2022-07-31T22:25:55.636Z,7.03
2022-07-31T22:28:23.566Z,7.28
2022-07-31T22:30:50.874Z,7.18
2022-07-31T22:33:20.261Z,7.28
2022-07-31T22:35:58.588Z,7.68
2022-07-31T22:38:28.935Z,6.53
2022-07-31T22:40:56.323Z,6.70
2022-07-31T22:44:13.923Z,5.97
2022-07-31T22:46:14.918Z,6.28
2022-07-31T22:48:41.748Z,6.07
2022-07-31T22:51:09.132Z,5.60
2022-07-31T22:53:39.776Z,6.07
2022-07-31T22:56:08.798Z,6.47
2022-07-31T22:58:35.656Z,6.05
2022-07-31T23:01:04.664Z,5.65
2022-07-31T23:03:31.493Z,5.85
2022-07-31T23:06:03.558Z,6.28
2022-07-31T23:08:45.104Z,6.15
2022-07-31T23:11:12.705Z,5.85
2022-07-31T23:13:39.713Z,6.07
2022-07-31T23:16:06.519Z,5.78
2022-07-31T23:18:33.294Z,6.30
2022-07-31T23:21:00.087Z,6.30
2022-07-31T23:23:26.916Z,6.25
2022-07-31T23:25:53.724Z,6.25
2022-07-31T23:28:20.564Z,6.72
2022-07-31T23:30:47.377Z,6.38
2022-07-31T23:33:16.431Z,6.40
2022-07-31T23:35:46.063Z,6.43
2022-07-31T23:38:12.890Z,6.80
2022-07-31T23:40:39.645Z,6.45
2022-07-31T23:43:06.737Z,6.20
2022-07-31T23:45:34.984Z,6.18
2022-07-31T23:48:02.118Z,6.50
2022-07-31T23:50:28.911Z,5.82
2022-07-31T23:52:55.697Z,5.35
2022-07-31T23:55:22.690Z,5.35
2022-07-31T23:57:51.015Z,6.13
